sensor_id;sensor_type;location;lat;lon;timestamp;pressure;altitude;pressure_sealevel;temperature;humidity
31005;BME280;17676;52.254;4.490;2023-12-29T00:01:54;98222.50;;;11.23;100.00
31005;BME280;17676;52.254;4.490;2023-12-29T00:04:20;98214.13;;;11.15;100.00
31005;BME280;17676;52.254;4.490;2023-12-29T00:06:46;98201.44;;;11.15;100.00
31005;BME280;17676;52.254;4.490;2023-12-29T00:09:12;98180.06;;;11.14;100.00
31005;BME280;17676;52.254;4.490;2023-12-29T00:11:39;98206.00;;;11.20;100.00
31005;BME280;17676;52.254;4.490;2023-12-29T00:14:05;98174.38;;;11.05;100.00
31005;BME280;17676;52.254;4.490;2023-12-29T00:16:31;98149.53;;;10.93;100.00
31005;BME280;17676;52.254;4.490;2023-12-29T00:18:57;98132.50;;;10.98;100.00
31005;BME280;17676;52.254;4.490;2023-12-29T00:21:22;98068.94;;;10.90;100.00
31005;BME280;17676;52.254;4.490;2023-12-29T00:23:48;98012.13;;;10.90;100.00
31005;BME280;17676;52.254;4.490;2023-12-29T00:26:17;97991.56;;;10.94;100.00
31005;BME280;17676;52.254;4.490;2023-12-29T00:28:43;97961.75;;;10.99;100.00
31005;BME280;17676;52.254;4.490;2023-12-29T00:31:14;97950.97;;;10.89;100.00
31005;BME280;17676;52.254;4.490;2023-12-29T00:33:41;97942.84;;;10.94;100.00
31005;BME280;17676;52.254;4.490;2023-12-29T00:36:07;97936.28;;;11.00;100.00
31005;BME280;17676;52.254;4.490;2023-12-29T00:38:33;97954.72;;;10.98;100.00
31005;BME280;17676;52.254;4.490;2023-12-29T00:40:59;97967.72;;;10.96;100.00
31005;BME280;17676;52.254;4.490;2023-12-29T00:43:25;97985.50;;;11.07;100.00
31005;BME280;17676;52.254;4.490;2023-12-29T00:45:50;97993.91;;;11.06;100.00
31005;BME280;17676;52.254;4.490;2023-12-29T00:48:16;97983.63;;;11.03;100.00
31005;BME280;17676;52.254;4.490;2023-12-29T00:50:42;98006.88;;;11.09;100.00
31005;BME280;17676;52.254;4.490;2023-12-29T00:53:07;98006.66;;;11.00;100.00
31005;BME280;17676;52.254;4.490;2023-12-29T00:55:33;98019.59;;;11.08;100.00
31005;BME280;17676;52.254;4.490;2023-12-29T00:57:59;98035.03;;;11.03;100.00
31005;BME280;17676;52.254;4.490;2023-12-29T01:00:24;98057.78;;;11.02;100.00
31005;BME280;17676;52.254;4.490;2023-12-29T01:02:50;98026.41;;;10.96;100.00
31005;BME280;17676;52.254;4.490;2023-12-29T01:05:16;98026.19;;;10.92;100.00
31005;BME280;17676;52.254;4.490;2023-12-29T01:07:45;98027.81;;;10.88;100.00
31005;BME280;17676;52.254;4.490;2023-12-29T01:10:11;98028.88;;;10.92;100.00
31005;BME280;17676;52.254;4.490;2023-12-29T01:12:37;98039.72;;;10.92;100.00
31005;BME280;17676;52.254;4.490;2023-12-29T01:15:03;98045.66;;;10.94;100.00
31005;BME280;17676;52.254;4.490;2023-12-29T01:17:29;98028.28;;;11.00;100.00
31005;BME280;17676;52.254;4.490;2023-12-29T01:19:54;98015.59;;;11.01;100.00
31005;BME280;17676;52.254;4.490;2023-12-29T01:22:20;98031.22;;;11.09;100.00
31005;BME280;17676;52.254;4.490;2023-12-29T01:24:46;98039.06;;;11.10;100.00
31005;BME280;17676;52.254;4.490;2023-12-29T01:27:11;98042.09;;;10.99;100.00
31005;BME280;17676;52.254;4.490;2023-12-29T01:29:37;98052.63;;;11.05;100.00
31005;BME280;17676;52.254;4.490;2023-12-29T01:32:03;98052.63;;;11.05;100.00
31005;BME280;17676;52.254;4.490;2023-12-29T01:34:32;98083.97;;;11.11;100.00
31005;BME280;17676;52.254;4.490;2023-12-29T01:37:02;98138.63;;;11.18;100.00
31005;BME280;17676;52.254;4.490;2023-12-29T01:39:28;98178.13;;;11.19;100.00
31005;BME280;17676;52.254;4.490;2023-12-29T01:41:55;98184.09;;;11.16;100.00
31005;BME280;17676;52.254;4.490;2023-12-29T01:44:22;98264.22;;;11.17;100.00
31005;BME280;17676;52.254;4.490;2023-12-29T01:46:54;98282.38;;;11.17;100.00
31005;BME280;17676;52.254;4.490;2023-12-29T01:49:21;98285.84;;;11.17;100.00
31005;BME280;17676;52.254;4.490;2023-12-29T01:51:53;98275.06;;;11.12;100.00
31005;BME280;17676;52.254;4.490;2023-12-29T01:54:23;98278.03;;;11.11;100.00
31005;BME280;17676;52.254;4.490;2023-12-29T01:56:50;98279.09;;;11.15;100.00
31005;BME280;17676;52.254;4.490;2023-12-29T01:59:17;98282.63;;;11.15;100.00
31005;BME280;17676;52.254;4.490;2023-12-29T02:01:44;98284.53;;;11.10;100.00
31005;BME280;17676;52.254;4.490;2023-12-29T02:04:13;98331.38;;;11.10;100.00
31005;BME280;17676;52.254;4.490;2023-12-29T02:06:39;98326.50;;;11.07;100.00
31005;BME280;17676;52.254;4.490;2023-12-29T02:09:05;98355.72;;;11.15;100.00
31005;BME280;17676;52.254;4.490;2023-12-29T02:11:31;98356.25;;;11.07;100.00
31005;BME280;17676;52.254;4.490;2023-12-29T02:13:59;98358.16;;;11.17;100.00
31005;BME280;17676;52.254;4.490;2023-12-29T02:16:38;98322.72;;;11.03;100.00
31005;BME280;17676;52.254;4.490;2023-12-29T02:19:36;98315.13;;;11.00;100.00
31005;BME280;17676;52.254;4.490;2023-12-29T02:21:58;98282.94;;;10.94;100.00
31005;BME280;17676;52.254;4.490;2023-12-29T02:24:30;98298.94;;;10.90;100.00
31005;BME280;17676;52.254;4.490;2023-12-29T02:32:47;98280.75;;;10.96;100.00
31005;BME280;17676;52.254;4.490;2023-12-29T02:35:18;98252.38;;;10.88;100.00
31005;BME280;17676;52.254;4.490;2023-12-29T02:37:46;98248.03;;;10.92;100.00
31005;BME280;17676;52.254;4.490;2023-12-29T02:40:14;98246.97;;;10.88;100.00
31005;BME280;17676;52.254;4.490;2023-12-29T02:42:50;98257.50;;;10.95;100.00
31005;BME280;17676;52.254;4.490;2023-12-29T02:45:16;98252.63;;;11.02;100.00
31005;BME280;17676;52.254;4.490;2023-12-29T02:47:43;98263.19;;;10.93;100.00
31005;BME280;17676;52.254;4.490;2023-12-29T02:50:10;98285.63;;;10.99;100.00
31005;BME280;17676;52.254;4.490;2023-12-29T02:52:36;98270.75;;;10.96;100.00
31005;BME280;17676;52.254;4.490;2023-12-29T02:55:02;98261.88;;;10.81;100.00
31005;BME280;17676;52.254;4.490;2023-12-29T02:57:28;98285.38;;;10.85;100.00
31005;BME280;17676;52.254;4.490;2023-12-29T02:59:54;98292.16;;;10.83;100.00
31005;BME280;17676;52.254;4.490;2023-12-29T03:02:20;98322.72;;;10.83;100.00
31005;BME280;17676;52.254;4.490;2023-12-29T03:04:46;98378.19;;;10.76;100.00
31005;BME280;17676;52.254;4.490;2023-12-29T03:07:11;98539.16;;;10.88;100.00
31005;BME280;17676;52.254;4.490;2023-12-29T03:09:37;98718.88;;;10.97;100.00
31005;BME280;17676;52.254;4.490;2023-12-29T03:12:03;98941.38;;;10.99;100.00
31005;BME280;17676;52.254;4.490;2023-12-29T03:14:29;99281.84;;;10.97;100.00
31005;BME280;17676;52.254;4.490;2023-12-29T03:16:55;99475.56;;;10.93;100.00
31005;BME280;17676;52.254;4.490;2023-12-29T03:19:21;99637.03;;;10.99;100.00
31005;BME280;17676;52.254;4.490;2023-12-29T03:21:46;99783.09;;;10.94;100.00
31005;BME280;17676;52.254;4.490;2023-12-29T03:24:12;99928.00;;;11.08;100.00
31005;BME280;17676;52.254;4.490;2023-12-29T03:26:41;100012.16;;;10.95;100.00
31005;BME280;17676;52.254;4.490;2023-12-29T03:29:06;100114.56;;;10.98;100.00
31005;BME280;17676;52.254;4.490;2023-12-29T03:31:32;100187.94;;;11.08;100.00
31005;BME280;17676;52.254;4.490;2023-12-29T03:33:58;100218.66;;;11.02;100.00
31005;BME280;17676;52.254;4.490;2023-12-29T03:36:23;100205.56;;;10.99;100.00
31005;BME280;17676;52.254;4.490;2023-12-29T03:38:49;100182.56;;;10.90;100.00
31005;BME280;17676;52.254;4.490;2023-12-29T03:41:15;100161.81;;;10.84;100.00
31005;BME280;17676;52.254;4.490;2023-12-29T03:43:40;100147.19;;;10.85;100.00
31005;BME280;17676;52.254;4.490;2023-12-29T03:46:19;100109.31;;;10.85;100.00
31005;BME280;17676;52.254;4.490;2023-12-29T03:48:45;100094.75;;;10.86;100.00
31005;BME280;17676;52.254;4.490;2023-12-29T03:51:11;100057.16;;;10.78;100.00
31005;BME280;17676;52.254;4.490;2023-12-29T03:53:40;100052.25;;;10.87;100.00
31005;BME280;17676;52.254;4.490;2023-12-29T03:56:17;100015.63;;;10.84;100.00
31005;BME280;17676;52.254;4.490;2023-12-29T03:58:44;100015.06;;;10.94;100.00
31005;BME280;17676;52.254;4.490;2023-12-29T04:01:14;100023.00;;;11.07;100.00
31005;BME280;17676;52.254;4.490;2023-12-29T04:03:40;100009.22;;;11.08;100.00
31005;BME280;17676;52.254;4.490;2023-12-29T04:06:07;99980.63;;;11.12;100.00
31005;BME280;17676;52.254;4.490;2023-12-29T04:08:33;99967.44;;;11.04;100.00
31005;BME280;17676;52.254;4.490;2023-12-29T04:10:59;99903.41;;;10.98;100.00
31005;BME280;17676;52.254;4.490;2023-12-29T04:13:25;99822.88;;;11.05;100.00
31005;BME280;17676;52.254;4.490;2023-12-29T04:15:50;99731.88;;;11.04;100.00
31005;BME280;17676;52.254;4.490;2023-12-29T04:18:17;99646.22;;;10.98;100.00
31005;BME280;17676;52.254;4.490;2023-12-29T04:20:43;99557.38;;;10.95;100.00
31005;BME280;17676;52.254;4.490;2023-12-29T04:23:08;99479.94;;;10.94;100.00
31005;BME280;17676;52.254;4.490;2023-12-29T04:25:34;99411.03;;;11.02;100.00
31005;BME280;17676;52.254;4.490;2023-12-29T04:28:00;99343.91;;;11.04;100.00
31005;BME280;17676;52.254;4.490;2023-12-29T04:30:29;99278.00;;;10.93;100.00
31005;BME280;17676;52.254;4.490;2023-12-29T04:32:54;99257.09;;;10.89;100.00
31005;BME280;17676;52.254;4.490;2023-12-29T04:35:20;99239.53;;;10.91;100.00
31005;BME280;17676;52.254;4.490;2023-12-29T04:37:48;99231.47;;;10.96;100.00
31005;BME280;17676;52.254;4.490;2023-12-29T04:40:15;99267.88;;;11.05;100.00
31005;BME280;17676;52.254;4.490;2023-12-29T04:42:40;99220.28;;;10.88;100.00
31005;BME280;17676;52.254;4.490;2023-12-29T04:45:06;99256.97;;;11.00;100.00
31005;BME280;17676;52.254;4.490;2023-12-29T04:47:33;99239.78;;;10.90;100.00
31005;BME280;17676;52.254;4.490;2023-12-29T04:49:59;99243.56;;;10.89;100.00
31005;BME280;17676;52.254;4.490;2023-12-29T04:52:24;99243.69;;;10.99;100.00
31005;BME280;17676;52.254;4.490;2023-12-29T04:54:50;99243.94;;;10.97;100.00
31005;BME280;17676;52.254;4.490;2023-12-29T04:57:16;99253.06;;;10.91;100.00
31005;BME280;17676;52.254;4.490;2023-12-29T04:59:41;99227.56;;;10.87;100.00
31005;BME280;17676;52.254;4.490;2023-12-29T05:02:07;99217.88;;;10.91;100.00
31005;BME280;17676;52.254;4.490;2023-12-29T05:04:33;99200.03;;;10.90;100.00
31005;BME280;17676;52.254;4.490;2023-12-29T05:06:58;99229.59;;;10.97;100.00
31005;BME280;17676;52.254;4.490;2023-12-29T05:09:24;99194.03;;;10.88;100.00
31005;BME280;17676;52.254;4.490;2023-12-29T05:11:50;99197.81;;;10.87;100.00
31005;BME280;17676;52.254;4.490;2023-12-29T05:14:16;99191.38;;;10.93;100.00
31005;BME280;17676;52.254;4.490;2023-12-29T05:16:42;99167.47;;;10.85;100.00
31005;BME280;17676;52.254;4.490;2023-12-29T05:19:08;99185.97;;;10.93;100.00
31005;BME280;17676;52.254;4.490;2023-12-29T05:21:33;99178.63;;;10.89;100.00
31005;BME280;17676;52.254;4.490;2023-12-29T05:23:59;99189.75;;;10.92;100.00
31005;BME280;17676;52.254;4.490;2023-12-29T05:26:25;99168.16;;;10.97;100.00
31005;BME280;17676;52.254;4.490;2023-12-29T05:28:50;99158.91;;;10.93;100.00
31005;BME280;17676;52.254;4.490;2023-12-29T05:31:16;99142.16;;;10.96;100.00
31005;BME280;17676;52.254;4.490;2023-12-29T05:33:42;99147.38;;;11.03;100.00
31005;BME280;17676;52.254;4.490;2023-12-29T05:36:09;99104.28;;;10.96;100.00
31005;BME280;17676;52.254;4.490;2023-12-29T05:38:36;99098.78;;;11.13;100.00
31005;BME280;17676;52.254;4.490;2023-12-29T05:41:06;99062.38;;;11.04;100.00
31005;BME280;17676;52.254;4.490;2023-12-29T05:43:33;99042.16;;;11.06;100.00
31005;BME280;17676;52.254;4.490;2023-12-29T05:45:59;99030.75;;;11.04;100.00
31005;BME280;17676;52.254;4.490;2023-12-29T05:48:25;99009.91;;;11.05;100.00
31005;BME280;17676;52.254;4.490;2023-12-29T05:50:51;99026.50;;;11.13;100.00
31005;BME280;17676;52.254;4.490;2023-12-29T05:53:17;98978.28;;;11.10;100.00
31005;BME280;17676;52.254;4.490;2023-12-29T05:55:43;98965.56;;;11.11;100.00
31005;BME280;17676;52.254;4.490;2023-12-29T05:58:10;98964.22;;;11.13;100.00
31005;BME280;17676;52.254;4.490;2023-12-29T06:00:36;98943.63;;;11.07;100.00
31005;BME280;17676;52.254;4.490;2023-12-29T06:03:02;98933.91;;;11.11;100.00
31005;BME280;17676;52.254;4.490;2023-12-29T06:05:29;98937.25;;;11.23;100.00
31005;BME280;17676;52.254;4.490;2023-12-29T06:07:55;98906.88;;;11.21;100.00
31005;BME280;17676;52.254;4.490;2023-12-29T06:10:21;98851.06;;;11.10;100.00
31005;BME280;17676;52.254;4.490;2023-12-29T06:12:47;98842.47;;;11.18;100.00
31005;BME280;17676;52.254;4.490;2023-12-29T06:15:13;98818.88;;;11.14;100.00
31005;BME280;17676;52.254;4.490;2023-12-29T06:17:39;98772.00;;;11.08;100.00
31005;BME280;17676;52.254;4.490;2023-12-29T06:20:06;98774.78;;;11.18;100.00
31005;BME280;17676;52.254;4.490;2023-12-29T06:22:32;98758.47;;;11.13;100.00
31005;BME280;17676;52.254;4.490;2023-12-29T06:24:58;98786.38;;;11.14;100.00
31005;BME280;17676;52.254;4.490;2023-12-29T06:27:25;98811.81;;;11.13;100.00
31005;BME280;17676;52.254;4.490;2023-12-29T06:29:51;98837.78;;;11.09;100.00
31005;BME280;17676;52.254;4.490;2023-12-29T06:32:16;98859.75;;;11.17;100.00
31005;BME280;17676;52.254;4.490;2023-12-29T06:34:42;98874.13;;;11.18;100.00
31005;BME280;17676;52.254;4.490;2023-12-29T06:37:08;98866.25;;;11.16;100.00
31005;BME280;17676;52.254;4.490;2023-12-29T06:39:34;98885.81;;;11.23;100.00
31005;BME280;17676;52.254;4.490;2023-12-29T06:42:00;98900.63;;;11.16;100.00
31005;BME280;17676;52.254;4.490;2023-12-29T06:44:25;98890.59;;;11.11;100.00
31005;BME280;17676;52.254;4.490;2023-12-29T06:46:51;98897.91;;;11.16;100.00
31005;BME280;17676;52.254;4.490;2023-12-29T06:49:18;98897.88;;;11.11;100.00
31005;BME280;17676;52.254;4.490;2023-12-29T06:51:43;98849.66;;;11.08;100.00
31005;BME280;17676;52.254;4.490;2023-12-29T06:54:09;98845.09;;;11.13;100.00
31005;BME280;17676;52.254;4.490;2023-12-29T06:56:35;98813.16;;;11.10;100.00
31005;BME280;17676;52.254;4.490;2023-12-29T06:59:01;98802.91;;;11.17;100.00
31005;BME280;17676;52.254;4.490;2023-12-29T07:01:27;98787.00;;;11.31;100.00
31005;BME280;17676;52.254;4.490;2023-12-29T07:03:53;98751.53;;;11.27;100.00
31005;BME280;17676;52.254;4.490;2023-12-29T07:06:18;98723.94;;;11.30;100.00
31005;BME280;17676;52.254;4.490;2023-12-29T07:08:44;98699.25;;;11.27;100.00
31005;BME280;17676;52.254;4.490;2023-12-29T07:11:10;98675.19;;;11.35;100.00
31005;BME280;17676;52.254;4.490;2023-12-29T07:13:37;98660.56;;;11.41;100.00
31005;BME280;17676;52.254;4.490;2023-12-29T07:16:02;98602.34;;;11.34;100.00
31005;BME280;17676;52.254;4.490;2023-12-29T07:18:28;98583.97;;;11.46;100.00
31005;BME280;17676;52.254;4.490;2023-12-29T07:20:54;98479.69;;;11.38;100.00
31005;BME280;17676;52.254;4.490;2023-12-29T07:23:19;98467.50;;;11.41;100.00
31005;BME280;17676;52.254;4.490;2023-12-29T07:25:47;98460.72;;;11.28;100.00
31005;BME280;17676;52.254;4.490;2023-12-29T07:28:13;98388.16;;;11.25;100.00
31005;BME280;17676;52.254;4.490;2023-12-29T07:30:39;98408.22;;;11.39;100.00
31005;BME280;17676;52.254;4.490;2023-12-29T07:33:05;98404.44;;;11.30;100.00
31005;BME280;17676;52.254;4.490;2023-12-29T07:35:31;98377.34;;;11.35;100.00
31005;BME280;17676;52.254;4.490;2023-12-29T07:37:56;98378.41;;;11.29;100.00
31005;BME280;17676;52.254;4.490;2023-12-29T07:40:22;98340.00;;;11.27;100.00
31005;BME280;17676;52.254;4.490;2023-12-29T07:42:48;98313.97;;;11.36;100.00
31005;BME280;17676;52.254;4.490;2023-12-29T07:45:16;98282.59;;;11.30;100.00
31005;BME280;17676;52.254;4.490;2023-12-29T07:47:42;98258.75;;;11.32;100.00
31005;BME280;17676;52.254;4.490;2023-12-29T07:50:07;98246.34;;;11.26;100.00
31005;BME280;17676;52.254;4.490;2023-12-29T07:52:33;98220.84;;;11.32;100.00
31005;BME280;17676;52.254;4.490;2023-12-29T07:54:59;98216.50;;;11.36;100.00
31005;BME280;17676;52.254;4.490;2023-12-29T07:57:25;98216.56;;;11.26;100.00
31005;BME280;17676;52.254;4.490;2023-12-29T07:59:51;98213.53;;;11.28;100.00
31005;BME280;17676;52.254;4.490;2023-12-29T08:02:16;98204.13;;;11.20;100.00
31005;BME280;17676;52.254;4.490;2023-12-29T08:04:42;98161.34;;;11.22;100.00
31005;BME280;17676;52.254;4.490;2023-12-29T08:07:10;98201.38;;;11.30;100.00
31005;BME280;17676;52.254;4.490;2023-12-29T08:09:35;98209.50;;;11.25;100.00
31005;BME280;17676;52.254;4.490;2023-12-29T08:12:01;98219.00;;;11.18;100.00
31005;BME280;17676;52.254;4.490;2023-12-29T08:14:31;98251.97;;;11.35;100.00
31005;BME280;17676;52.254;4.490;2023-12-29T08:16:58;98234.72;;;11.21;100.00
31005;BME280;17676;52.254;4.490;2023-12-29T08:19:23;98260.44;;;11.13;100.00
31005;BME280;17676;52.254;4.490;2023-12-29T08:21:51;98241.50;;;11.08;100.00
31005;BME280;17676;52.254;4.490;2023-12-29T08:24:17;98217.69;;;11.05;100.00
31005;BME280;17676;52.254;4.490;2023-12-29T08:26:53;98211.97;;;11.17;100.00
31005;BME280;17676;52.254;4.490;2023-12-29T08:29:19;98203.06;;;11.11;100.00
31005;BME280;17676;52.254;4.490;2023-12-29T08:31:45;98208.19;;;11.18;100.00
31005;BME280;17676;52.254;4.490;2023-12-29T08:34:10;98207.94;;;11.14;100.00
31005;BME280;17676;52.254;4.490;2023-12-29T08:36:36;98186.53;;;11.18;100.00
31005;BME280;17676;52.254;4.490;2023-12-29T08:39:02;98191.16;;;11.12;100.00
31005;BME280;17676;52.254;4.490;2023-12-29T08:41:28;98211.47;;;11.10;100.00
31005;BME280;17676;52.254;4.490;2023-12-29T08:43:53;98195.22;;;11.10;100.00
31005;BME280;17676;52.254;4.490;2023-12-29T08:46:19;98208.22;;;11.13;100.00
31005;BME280;17676;52.254;4.490;2023-12-29T08:48:46;98242.84;;;11.21;100.00
31005;BME280;17676;52.254;4.490;2023-12-29T08:51:11;98242.56;;;11.17;100.00
31005;BME280;17676;52.254;4.490;2023-12-29T08:53:38;98260.41;;;11.23;100.00
31005;BME280;17676;52.254;4.490;2023-12-29T08:56:04;98253.94;;;11.19;100.00
31005;BME280;17676;52.254;4.490;2023-12-29T08:58:30;98267.47;;;11.19;100.00
31005;BME280;17676;52.254;4.490;2023-12-29T09:00:56;98254.75;;;11.15;100.00
31005;BME280;17676;52.254;4.490;2023-12-29T09:03:22;98260.44;;;11.08;100.00
31005;BME280;17676;52.254;4.490;2023-12-29T09:05:47;98237.22;;;11.02;100.00
31005;BME280;17676;52.254;4.490;2023-12-29T09:08:13;98232.88;;;11.06;100.00
31005;BME280;17676;52.254;4.490;2023-12-29T09:10:39;98207.97;;;11.04;100.00
31005;BME280;17676;52.254;4.490;2023-12-29T09:13:05;98176.56;;;11.08;100.00
31005;BME280;17676;52.254;4.490;2023-12-29T09:15:31;98171.69;;;11.10;100.00
31005;BME280;17676;52.254;4.490;2023-12-29T09:17:57;98137.00;;;11.22;100.00
31005;BME280;17676;52.254;4.490;2023-12-29T09:20:23;98100.16;;;11.21;100.00
31005;BME280;17676;52.254;4.490;2023-12-29T09:22:49;98090.41;;;11.20;100.00
31005;BME280;17676;52.254;4.490;2023-12-29T09:25:17;98092.06;;;11.16;100.00
31005;BME280;17676;52.254;4.490;2023-12-29T09:27:44;98095.00;;;11.25;100.00
31005;BME280;17676;52.254;4.490;2023-12-29T09:30:10;98095.84;;;11.20;100.00
31005;BME280;17676;52.254;4.490;2023-12-29T09:32:35;98085.84;;;11.21;100.00
31005;BME280;17676;52.254;4.490;2023-12-29T09:35:03;98062.25;;;11.21;100.00
31005;BME280;17676;52.254;4.490;2023-12-29T09:37:29;98067.63;;;11.31;100.00
31005;BME280;17676;52.254;4.490;2023-12-29T09:39:55;98034.13;;;11.17;100.00
31005;BME280;17676;52.254;4.490;2023-12-29T09:42:21;98060.09;;;11.23;100.00
31005;BME280;17676;52.254;4.490;2023-12-29T09:44:51;98088.97;;;11.38;100.00
31005;BME280;17676;52.254;4.490;2023-12-29T09:47:22;98064.06;;;11.36;100.00
31005;BME280;17676;52.254;4.490;2023-12-29T09:49:52;98081.66;;;11.38;100.00
31005;BME280;17676;52.254;4.490;2023-12-29T09:52:20;98058.34;;;11.42;100.00
31005;BME280;17676;52.254;4.490;2023-12-29T09:54:51;98086.44;;;11.51;100.00
31005;BME280;17676;52.254;4.490;2023-12-29T09:57:17;98092.94;;;11.50;100.00
31005;BME280;17676;52.254;4.490;2023-12-29T09:59:44;98111.31;;;11.53;100.00
31005;BME280;17676;52.254;4.490;2023-12-29T10:02:15;98120.34;;;11.39;100.00
31005;BME280;17676;52.254;4.490;2023-12-29T10:04:43;98120.09;;;11.40;100.00
31005;BME280;17676;52.254;4.490;2023-12-29T10:07:15;98133.25;;;11.57;100.00
31005;BME280;17676;52.254;4.490;2023-12-29T10:09:43;98143.34;;;11.41;100.00
31005;BME280;17676;52.254;4.490;2023-12-29T10:12:11;98143.63;;;11.45;100.00
31005;BME280;17676;52.254;4.490;2023-12-29T10:17:41;98171.47;;;11.55;100.00
31005;BME280;17676;52.254;4.490;2023-12-29T10:20:37;98189.56;;;11.60;100.00
31005;BME280;17676;52.254;4.490;2023-12-29T10:25:32;98228.41;;;11.40;100.00
31005;BME280;17676;52.254;4.490;2023-12-29T10:27:58;98272.19;;;11.57;100.00
31005;BME280;17676;52.254;4.490;2023-12-29T10:30:24;98315.53;;;11.57;100.00
31005;BME280;17676;52.254;4.490;2023-12-29T10:32:50;98395.16;;;11.66;100.00
31005;BME280;17676;52.254;4.490;2023-12-29T10:35:17;98492.69;;;11.76;100.00
31005;BME280;17676;52.254;4.490;2023-12-29T10:37:43;98582.09;;;11.81;100.00
31005;BME280;17676;52.254;4.490;2023-12-29T10:40:10;98669.91;;;11.75;100.00
31005;BME280;17676;52.254;4.490;2023-12-29T10:42:52;98783.72;;;11.75;100.00
31005;BME280;17676;52.254;4.490;2023-12-29T10:45:18;98877.47;;;11.76;100.00
31005;BME280;17676;52.254;4.490;2023-12-29T10:47:44;98989.72;;;11.85;100.00
31005;BME280;17676;52.254;4.490;2023-12-29T10:50:10;99068.28;;;11.80;100.00
31005;BME280;17676;52.254;4.490;2023-12-29T10:52:36;99183.13;;;11.74;100.00
31005;BME280;17676;52.254;4.490;2023-12-29T10:55:10;99314.25;;;11.68;100.00
31005;BME280;17676;52.254;4.490;2023-12-29T10:57:39;99397.63;;;11.83;100.00
31005;BME280;17676;52.254;4.490;2023-12-29T11:00:06;99471.97;;;11.70;100.00
31005;BME280;17676;52.254;4.490;2023-12-29T11:02:34;99524.78;;;11.68;100.00
31005;BME280;17676;52.254;4.490;2023-12-29T11:05:03;99567.75;;;11.76;100.00
31005;BME280;17676;52.254;4.490;2023-12-29T11:07:36;99594.59;;;11.77;100.00
31005;BME280;17676;52.254;4.490;2023-12-29T11:10:03;99596.09;;;11.68;100.00
31005;BME280;17676;52.254;4.490;2023-12-29T11:12:33;99584.56;;;11.61;100.00
31005;BME280;17676;52.254;4.490;2023-12-29T11:15:04;99581.94;;;11.66;100.00
31005;BME280;17676;52.254;4.490;2023-12-29T11:17:33;99564.03;;;11.65;100.00
31005;BME280;17676;52.254;4.490;2023-12-29T11:20:01;99556.09;;;11.75;100.00
31005;BME280;17676;52.254;4.490;2023-12-29T11:22:31;99555.34;;;11.80;100.00
31005;BME280;17676;52.254;4.490;2023-12-29T11:24:58;99545.44;;;11.57;100.00
31005;BME280;17676;52.254;4.490;2023-12-29T11:27:29;99508.59;;;11.56;100.00
31005;BME280;17676;52.254;4.490;2023-12-29T11:29:57;99472.56;;;11.72;100.00
31005;BME280;17676;52.254;4.490;2023-12-29T11:35:13;99401.59;;;11.75;100.00
31005;BME280;17676;52.254;4.490;2023-12-29T11:38:08;99387.66;;;11.88;100.00
31005;BME280;17676;52.254;4.490;2023-12-29T11:40:48;99387.91;;;11.65;100.00
31005;BME280;17676;52.254;4.490;2023-12-29T11:43:17;99364.16;;;11.72;100.00
31005;BME280;17676;52.254;4.490;2023-12-29T11:45:43;99327.72;;;11.63;100.00
31005;BME280;17676;52.254;4.490;2023-12-29T11:48:10;99316.38;;;11.66;100.00
31005;BME280;17676;52.254;4.490;2023-12-29T11:50:37;99306.56;;;11.60;100.00
31005;BME280;17676;52.254;4.490;2023-12-29T11:53:06;99331.41;;;11.57;100.00
31005;BME280;17676;52.254;4.490;2023-12-29T11:55:39;99376.84;;;11.50;100.00
31005;BME280;17676;52.254;4.490;2023-12-29T11:58:26;99358.34;;;11.64;100.00
31005;BME280;17676;52.254;4.490;2023-12-29T12:00:53;99327.25;;;11.50;100.00
31005;BME280;17676;52.254;4.490;2023-12-29T12:03:26;99325.03;;;11.63;100.00
31005;BME280;17676;52.254;4.490;2023-12-29T12:05:54;99306.06;;;11.63;100.00
31005;BME280;17676;52.254;4.490;2023-12-29T12:08:34;99318.03;;;11.67;100.00
31005;BME280;17676;52.254;4.490;2023-12-29T12:13:54;99286.66;;;11.71;100.00
31005;BME280;17676;52.254;4.490;2023-12-29T12:19:10;99227.22;;;11.65;100.00
31005;BME280;17676;52.254;4.490;2023-12-29T12:21:39;99175.81;;;11.75;100.00
31005;BME280;17676;52.254;4.490;2023-12-29T12:24:06;99173.84;;;11.65;100.00
31005;BME280;17676;52.254;4.490;2023-12-29T12:26:32;99184.63;;;11.60;100.00
31005;BME280;17676;52.254;4.490;2023-12-29T12:28:58;99198.09;;;11.55;100.00
31005;BME280;17676;52.254;4.490;2023-12-29T12:31:24;99202.34;;;11.46;100.00
31005;BME280;17676;52.254;4.490;2023-12-29T12:33:54;99201.00;;;11.49;100.00
31005;BME280;17676;52.254;4.490;2023-12-29T12:36:20;99202.94;;;11.53;100.00
31005;BME280;17676;52.254;4.490;2023-12-29T12:38:53;99176.38;;;11.50;100.00
31005;BME280;17676;52.254;4.490;2023-12-29T12:41:20;99171.16;;;11.70;100.00
31005;BME280;17676;52.254;4.490;2023-12-29T12:44:11;99164.63;;;11.93;100.00
31005;BME280;17676;52.254;4.490;2023-12-29T12:46:35;99192.84;;;11.70;100.00
31005;BME280;17676;52.254;4.490;2023-12-29T12:49:04;99206.34;;;11.65;100.00
31005;BME280;17676;52.254;4.490;2023-12-29T12:51:32;99199.00;;;11.61;100.00
31005;BME280;17676;52.254;4.490;2023-12-29T12:53:58;99213.78;;;11.53;100.00
31005;BME280;17676;52.254;4.490;2023-12-29T12:56:24;99209.84;;;11.39;100.00
31005;BME280;17676;52.254;4.490;2023-12-29T12:58:55;99201.28;;;11.26;100.00
31005;BME280;17676;52.254;4.490;2023-12-29T13:01:21;99195.16;;;11.35;100.00
31005;BME280;17676;52.254;4.490;2023-12-29T13:03:47;99183.00;;;11.38;100.00
31005;BME280;17676;52.254;4.490;2023-12-29T13:06:14;99178.91;;;11.35;100.00
31005;BME280;17676;52.254;4.490;2023-12-29T13:08:42;99182.31;;;11.47;100.00
31005;BME280;17676;52.254;4.490;2023-12-29T13:11:08;99164.59;;;11.40;100.00